Time;durP1;ratioP1;P1;durP2;ratioP2;P2;SDS_P1;SDS_P2;PMS_P1;PMS_P2;Temp;Humidity;BMP_temperature;BMP_pressure;BME280_temperature;BME280_humidity;BME280_pressure;Samples;Min_cycle;Max_cycle;Signal;HPM_P1;HPM_P2
2024/01/05 00:01:38;;;;;;;15.13;8.45;;;;;;;;;;5036304;28;20049;-68
2024/01/05 00:04:04;;;;;;;13.98;9.50;;;;;;;;;;4995498;28;20049;-69
2024/01/05 00:06:35;;;;;;;14.70;8.88;;;;;;;;;;5035427;28;20442;-69
2024/01/05 00:09:06;;;;;;;;;;;;;;;;;;5033299;28;20497;-66
2024/01/05 00:11:34;;;;;;;12.43;8.07;;;;;;;;;;5047637;28;20097;-69
2024/01/05 00:14:04;;;;;;;15.40;8.18;;;;;;;;;;5042161;28;20053;-68
2024/01/05 00:16:31;;;;;;;18.27;8.15;;;;;;;;;;5035155;28;21129;-68
2024/01/05 00:18:59;;;;;;;14.15;8.38;;;;;;;;;;5040292;28;20127;-67
2024/01/05 00:21:28;;;;;;;15.73;8.35;;;;;;;;;;4997381;28;20041;-67
2024/01/05 00:23:56;;;;;;;16.45;8.75;;;;;;;;;;5039278;28;20065;-69
2024/01/05 00:26:25;;;;;;;11.25;8.10;;;;;;;;;;5043781;28;20152;-68
2024/01/05 00:28:54;;;;;;;12.82;7.60;;;;;;;;;;5031854;28;20111;-67
2024/01/05 00:31:21;;;;;;;12.35;7.10;;;;;;;;;;5039136;28;20056;-68
2024/01/05 00:33:47;;;;;;;12.90;7.20;;;;;;;;;;5021180;28;20140;-66
2024/01/05 00:36:13;;;;;;;10.45;6.80;;;;;;;;;;5043065;28;20148;-68
2024/01/05 00:38:46;;;;;;;11.77;7.25;;;;;;;;;;5005684;28;20127;-68
2024/01/05 00:41:13;;;;;;;12.88;7.47;;;;;;;;;;5036428;28;20072;-68
2024/01/05 00:43:40;;;;;;;11.07;7.28;;;;;;;;;;5041921;28;20116;-69
2024/01/05 00:46:07;;;;;;;12.70;7.13;;;;;;;;;;5017179;28;20057;-69
2024/01/05 00:48:33;;;;;;;10.23;7.05;;;;;;;;;;5034179;28;20048;-68
2024/01/05 00:51:00;;;;;;;17.77;7.55;;;;;;;;;;5026520;28;20050;-67
2024/01/05 00:53:32;;;;;;;15.95;7.05;;;;;;;;;;5040524;28;20057;-67
2024/01/05 00:55:59;;;;;;;10.95;6.35;;;;;;;;;;5030127;28;20041;-69
2024/01/05 00:58:26;;;;;;;12.18;6.35;;;;;;;;;;5017697;28;20053;-66
2024/01/05 01:00:54;;;;;;;11.48;6.00;;;;;;;;;;5032662;28;20072;-67
2024/01/05 01:03:21;;;;;;;8.55;6.28;;;;;;;;;;5032187;28;20057;-67
2024/01/05 01:05:48;;;;;;;9.40;5.82;;;;;;;;;;5028788;28;20483;-66
2024/01/05 01:08:14;;;;;;;9.13;5.05;;;;;;;;;;5042769;28;20461;-66
2024/01/05 01:10:41;;;;;;;9.93;4.68;;;;;;;;;;5039372;28;20519;-70
2024/01/05 01:13:11;;;;;;;7.28;4.60;;;;;;;;;;5029367;28;20073;-67
2024/01/05 01:15:39;;;;;;;6.03;4.43;;;;;;;;;;5025656;28;20052;-66
2024/01/05 01:18:06;;;;;;;7.18;4.68;;;;;;;;;;5041742;28;20108;-67
2024/01/05 01:20:33;;;;;;;7.90;5.13;;;;;;;;;;5049054;28;20059;-68
2024/01/05 01:22:59;;;;;;;8.70;5.60;;;;;;;;;;5037543;28;20141;-68
2024/01/05 01:25:25;;;;;;;10.57;5.00;;;;;;;;;;5034536;28;20138;-70
2024/01/05 01:27:52;;;;;;;8.40;5.20;;;;;;;;;;5036048;28;20057;-66
2024/01/05 01:30:19;;;;;;;8.43;5.40;;;;;;;;;;5021124;28;20045;-66
2024/01/05 01:32:48;;;;;;;6.93;4.70;;;;;;;;;;5037203;28;20141;-67
2024/01/05 01:35:15;;;;;;;6.68;4.68;;;;;;;;;;5042674;28;20049;-67
2024/01/05 01:37:43;;;;;;;8.10;4.70;;;;;;;;;;5037676;28;20061;-70
2024/01/05 01:40:10;;;;;;;5.55;3.92;;;;;;;;;;5036067;28;20049;-66
2024/01/05 01:42:36;;;;;;;6.03;3.70;;;;;;;;;;5016214;28;20723;-67
2024/01/05 01:45:03;;;;;;;6.22;4.10;;;;;;;;;;5038034;28;20421;-69
2024/01/05 01:47:30;;;;;;;6.80;3.55;;;;;;;;;;5041792;28;20147;-68
2024/01/05 01:49:57;;;;;;;5.93;3.67;;;;;;;;;;5034898;28;20137;-67
2024/01/05 01:52:24;;;;;;;6.60;3.47;;;;;;;;;;5038773;28;20072;-66
2024/01/05 01:54:51;;;;;;;3.80;2.97;;;;;;;;;;5020799;28;20132;-66
2024/01/05 01:57:18;;;;;;;4.18;2.80;;;;;;;;;;5035043;28;20054;-66
2024/01/05 01:59:45;;;;;;;5.03;2.90;;;;;;;;;;5030882;28;20055;-66
2024/01/05 02:02:12;;;;;;;3.85;2.35;;;;;;;;;;5033819;28;20495;-72
2024/01/05 02:04:40;;;;;;;3.35;2.50;;;;;;;;;;5033243;28;20686;-67
2024/01/05 02:07:07;;;;;;;4.25;1.80;;;;;;;;;;5028548;28;20053;-66
2024/01/05 02:09:34;;;;;;;3.45;2.10;;;;;;;;;;5029964;28;20042;-69
2024/01/05 02:12:01;;;;;;;4.13;2.42;;;;;;;;;;5029158;28;20387;-67
2024/01/05 02:14:27;;;;;;;3.95;2.30;;;;;;;;;;5017549;28;20075;-67
2024/01/05 02:16:56;;;;;;;4.00;2.10;;;;;;;;;;5032773;28;20084;-66
2024/01/05 02:19:22;;;;;;;4.55;1.90;;;;;;;;;;5013042;28;20045;-66
2024/01/05 02:21:52;;;;;;;1.90;1.70;;;;;;;;;;5038259;28;20033;-66
2024/01/05 02:24:19;;;;;;;2.40;1.60;;;;;;;;;;5029287;28;20148;-65
2024/01/05 02:26:52;;;;;;;2.63;1.45;;;;;;;;;;5042112;28;20064;-65
2024/01/05 02:29:21;;;;;;;2.85;1.80;;;;;;;;;;5034707;28;20367;-67
2024/01/05 02:31:48;;;;;;;3.40;1.70;;;;;;;;;;5026138;28;20104;-66
2024/01/05 02:34:14;;;;;;;2.95;1.40;;;;;;;;;;5023553;28;20052;-65
2024/01/05 02:36:43;;;;;;;2.05;1.38;;;;;;;;;;5029511;28;20049;-65
2024/01/05 02:39:11;;;;;;;2.30;1.10;;;;;;;;;;5028693;28;20136;-67
2024/01/05 02:41:51;;;;;;;1.33;1.00;;;;;;;;;;5028869;28;20343;-65
2024/01/05 02:44:17;;;;;;;2.38;1.10;;;;;;;;;;5031176;28;20058;-66
2024/01/05 02:46:48;;;;;;;1.67;1.02;;;;;;;;;;5038904;28;20387;-66
2024/01/05 02:49:17;;;;;;;1.13;0.80;;;;;;;;;;5033071;28;20056;-65
2024/01/05 02:51:44;;;;;;;2.28;0.80;;;;;;;;;;5035543;28;20076;-66
2024/01/05 02:54:10;;;;;;;1.42;0.50;;;;;;;;;;5038637;28;20060;-66
2024/01/05 02:56:37;;;;;;;2.03;0.95;;;;;;;;;;5032986;28;20128;-65
2024/01/05 02:59:04;;;;;;;1.05;0.80;;;;;;;;;;5042775;28;20152;-66
2024/01/05 03:01:31;;;;;;;1.58;0.50;;;;;;;;;;5039370;28;20515;-65
2024/01/05 03:04:01;;;;;;;0.90;0.52;;;;;;;;;;5032504;28;20050;-65
2024/01/05 03:06:30;;;;;;;2.13;0.70;;;;;;;;;;5011429;28;20054;-65
2024/01/05 03:08:57;;;;;;;0.60;0.60;;;;;;;;;;5029160;28;20041;-66
2024/01/05 03:11:26;;;;;;;0.70;0.60;;;;;;;;;;5025766;28;20050;-66
2024/01/05 03:13:53;;;;;;;1.92;0.90;;;;;;;;;;5029011;28;20060;-66
2024/01/05 03:16:19;;;;;;;1.75;0.45;;;;;;;;;;5031123;28;20064;-65
2024/01/05 03:18:45;;;;;;;2.33;0.60;;;;;;;;;;5032058;28;20099;-68
2024/01/05 03:21:13;;;;;;;0.50;0.50;;;;;;;;;;5037923;28;20076;-67
2024/01/05 03:23:40;;;;;;;2.97;0.60;;;;;;;;;;5035126;28;20084;-68
2024/01/05 03:26:09;;;;;;;0.63;0.50;;;;;;;;;;5041726;28;20138;-65
2024/01/05 03:28:38;;;;;;;0.80;0.60;;;;;;;;;;5030715;28;20376;-67
2024/01/05 03:31:04;;;;;;;0.68;0.50;;;;;;;;;;5031584;28;20045;-68
2024/01/05 03:33:31;;;;;;;0.60;0.50;;;;;;;;;;5028630;28;20099;-65
2024/01/05 03:35:57;;;;;;;0.63;0.50;;;;;;;;;;5040224;28;20055;-66
2024/01/05 03:38:23;;;;;;;0.47;0.47;;;;;;;;;;5042425;28;20049;-66
2024/01/05 03:40:51;;;;;;;1.90;0.50;;;;;;;;;;5040868;28;20442;-69
2024/01/05 03:43:18;;;;;;;0.30;0.30;;;;;;;;;;5025163;28;20144;-66
2024/01/05 03:45:46;;;;;;;0.70;0.50;;;;;;;;;;5030111;28;20495;-67
2024/01/05 03:48:14;;;;;;;0.50;0.30;;;;;;;;;;5029961;28;20049;-67
2024/01/05 03:50:41;;;;;;;0.98;0.40;;;;;;;;;;5016702;28;20045;-65
2024/01/05 03:53:07;;;;;;;0.63;0.30;;;;;;;;;;5029389;28;20049;-66
2024/01/05 03:55:35;;;;;;;1.17;0.43;;;;;;;;;;5035603;28;20045;-66
2024/01/05 03:58:02;;;;;;;0.30;0.30;;;;;;;;;;5036290;28;20049;-66
2024/01/05 04:00:28;;;;;;;1.55;0.50;;;;;;;;;;5033850;28;20048;-67
2024/01/05 04:02:56;;;;;;;0.38;0.38;;;;;;;;;;5034568;28;20045;-65
2024/01/05 04:05:23;;;;;;;0.35;0.30;;;;;;;;;;5030497;28;20049;-66
2024/01/05 04:07:50;;;;;;;0.55;0.40;;;;;;;;;;5043873;28;20056;-67
2024/01/05 04:10:18;;;;;;;1.10;0.60;;;;;;;;;;5040925;28;20045;-64
2024/01/05 04:12:44;;;;;;;0.75;0.40;;;;;;;;;;5018438;28;20144;-66
2024/01/05 04:15:11;;;;;;;0.38;0.38;;;;;;;;;;5033337;28;20053;-64
2024/01/05 04:17:37;;;;;;;1.17;0.40;;;;;;;;;;5026359;28;20056;-65
2024/01/05 04:20:04;;;;;;;1.13;0.43;;;;;;;;;;5032591;28;20104;-66
2024/01/05 04:22:31;;;;;;;0.40;0.40;;;;;;;;;;5018031;28;20099;-67
2024/01/05 04:25:00;;;;;;;0.68;0.50;;;;;;;;;;5027641;28;20128;-67
2024/01/05 04:27:27;;;;;;;0.65;0.40;;;;;;;;;;5040356;28;20048;-66
2024/01/05 04:29:53;;;;;;;1.10;0.30;;;;;;;;;;5033481;28;20053;-67
2024/01/05 04:32:20;;;;;;;1.92;0.60;;;;;;;;;;5041251;28;20060;-66
2024/01/05 04:34:48;;;;;;;1.10;0.60;;;;;;;;;;5029552;28;20103;-67
2024/01/05 04:37:15;;;;;;;0.73;0.50;;;;;;;;;;5035662;28;20061;-68
2024/01/05 04:39:43;;;;;;;0.82;0.50;;;;;;;;;;5010295;28;20053;-66
2024/01/05 04:42:11;;;;;;;1.02;0.40;;;;;;;;;;5032184;28;20468;-65
2024/01/05 04:44:38;;;;;;;0.50;0.38;;;;;;;;;;5031334;28;20088;-67
2024/01/05 04:47:04;;;;;;;1.10;0.50;;;;;;;;;;5022128;28;20050;-66
2024/01/05 04:49:34;;;;;;;0.55;0.45;;;;;;;;;;5033341;28;20111;-66
2024/01/05 04:52:01;;;;;;;0.50;0.35;;;;;;;;;;5031009;28;20041;-66
2024/01/05 04:54:27;;;;;;;0.85;0.50;;;;;;;;;;5030313;28;20132;-67
2024/01/05 04:56:53;;;;;;;0.40;0.40;;;;;;;;;;5014262;28;20057;-67
2024/01/05 04:59:22;;;;;;;0.82;0.63;;;;;;;;;;5017347;28;20115;-68
2024/01/05 05:01:50;;;;;;;1.13;0.63;;;;;;;;;;5036310;28;20048;-67
2024/01/05 05:04:17;;;;;;;0.70;0.52;;;;;;;;;;5026091;28;20053;-65
2024/01/05 05:06:45;;;;;;;1.52;0.80;;;;;;;;;;5032128;28;20049;-66
2024/01/05 05:09:12;;;;;;;1.38;0.60;;;;;;;;;;5035812;28;20072;-65
2024/01/05 05:11:40;;;;;;;0.70;0.50;;;;;;;;;;5044238;28;20200;-66
2024/01/05 05:14:09;;;;;;;0.80;0.60;;;;;;;;;;5032466;28;20107;-66
2024/01/05 05:16:35;;;;;;;0.32;0.32;;;;;;;;;;5009186;28;20049;-66
2024/01/05 05:19:02;;;;;;;0.73;0.70;;;;;;;;;;5037796;28;20060;-67
2024/01/05 05:21:29;;;;;;;1.13;0.60;;;;;;;;;;5033737;28;20084;-67
2024/01/05 05:23:56;;;;;;;0.90;0.73;;;;;;;;;;5032253;28;20075;-66
2024/01/05 05:26:22;;;;;;;1.05;0.80;;;;;;;;;;5040028;28;20061;-66
2024/01/05 05:28:49;;;;;;;0.80;0.70;;;;;;;;;;5032109;28;20060;-68
2024/01/05 05:31:17;;;;;;;0.73;0.70;;;;;;;;;;5039294;28;20057;-67
2024/01/05 05:33:44;;;;;;;2.25;0.77;;;;;;;;;;5020103;28;20072;-65
2024/01/05 05:36:12;;;;;;;1.35;0.70;;;;;;;;;;5046926;28;20383;-66
2024/01/05 05:38:41;;;;;;;1.67;0.70;;;;;;;;;;5018206;28;20042;-67
2024/01/05 05:41:07;;;;;;;1.50;0.80;;;;;;;;;;5036051;28;20041;-66
2024/01/05 05:43:34;;;;;;;1.15;0.73;;;;;;;;;;5043019;28;20056;-66
2024/01/05 05:46:00;;;;;;;1.45;0.80;;;;;;;;;;5044419;28;20110;-68
2024/01/05 05:48:29;;;;;;;0.80;0.80;;;;;;;;;;5030335;28;20053;-67
2024/01/05 05:51:00;;;;;;;0.80;0.80;;;;;;;;;;5029063;28;20045;-65
2024/01/05 05:53:27;;;;;;;1.58;0.90;;;;;;;;;;5025126;28;20048;-67
2024/01/05 05:55:53;;;;;;;1.38;0.90;;;;;;;;;;5045495;28;20049;-70
2024/01/05 05:58:22;;;;;;;1.77;0.60;;;;;;;;;;5023520;28;20049;-67
2024/01/05 06:00:49;;;;;;;0.68;0.68;;;;;;;;;;5018327;28;20036;-68
2024/01/05 06:03:17;;;;;;;1.30;0.80;;;;;;;;;;5033695;28;20119;-68
2024/01/05 06:05:46;;;;;;;1.25;0.90;;;;;;;;;;5031484;28;20634;-65
2024/01/05 06:08:15;;;;;;;1.40;1.00;;;;;;;;;;5020711;28;20136;-68
2024/01/05 06:10:43;;;;;;;1.05;0.93;;;;;;;;;;5028001;28;20419;-66
2024/01/05 06:13:13;;;;;;;1.02;0.75;;;;;;;;;;5034525;28;20061;-66
2024/01/05 06:15:40;;;;;;;2.00;1.17;;;;;;;;;;5035194;28;20057;-67
2024/01/05 06:18:06;;;;;;;2.72;0.95;;;;;;;;;;5037983;28;20049;-64
2024/01/05 06:20:33;;;;;;;2.85;1.00;;;;;;;;;;5035756;28;20414;-67
2024/01/05 06:23:00;;;;;;;3.38;1.10;;;;;;;;;;5021410;28;20107;-65
2024/01/05 06:25:26;;;;;;;0.70;0.70;;;;;;;;;;5043668;28;20061;-67
2024/01/05 06:27:52;;;;;;;1.73;1.30;;;;;;;;;;5029942;28;20045;-65
2024/01/05 06:30:20;;;;;;;1.95;1.40;;;;;;;;;;5029028;28;20053;-67
2024/01/05 06:32:48;;;;;;;2.58;1.45;;;;;;;;;;5016549;28;20048;-67
2024/01/05 06:35:14;;;;;;;2.45;1.38;;;;;;;;;;5021456;28;20057;-67
2024/01/05 06:38:23;;;;;;;2.72;1.60;;;;;;;;;;5005180;28;20107;-67
2024/01/05 06:42:05;;;;;;;2.58;1.13;;;;;;;;;;5032092;28;20538;-66
2024/01/05 06:45:46;;;;;;;4.82;1.27;;;;;;;;;;5035947;28;20061;-66
2024/01/05 06:49:27;;;;;;;2.92;1.50;;;;;;;;;;5026903;28;20112;-65
2024/01/05 06:53:06;;;;;;;1.20;1.02;;;;;;;;;;5022392;28;20049;-65
2024/01/05 06:56:48;;;;;;;3.03;1.20;;;;;;;;;;5031694;28;20414;-69
2024/01/05 07:00:29;;;;;;;2.75;1.10;;;;;;;;;;5029570;28;20124;-67
2024/01/05 07:04:10;;;;;;;2.33;1.30;;;;;;;;;;5036952;28;20056;-68
2024/01/05 07:07:12;;;;;;;2.25;1.30;;;;;;;;;;5028112;28;20100;-67
2024/01/05 07:09:40;;;;;;;2.15;0.85;;;;;;;;;;5021585;28;20048;-67
2024/01/05 07:12:08;;;;;;;3.30;1.30;;;;;;;;;;5018281;28;20129;-66
2024/01/05 07:14:35;;;;;;;1.70;1.20;;;;;;;;;;5004813;28;20121;-66
2024/01/05 07:17:04;;;;;;;3.30;1.15;;;;;;;;;;5026225;28;20080;-66
2024/01/05 07:19:33;;;;;;;2.50;1.20;;;;;;;;;;5025789;28;20049;-66
2024/01/05 07:22:01;;;;;;;2.88;1.30;;;;;;;;;;5035360;28;20053;-67
2024/01/05 07:24:28;;;;;;;3.50;1.30;;;;;;;;;;5037205;28;20364;-67
2024/01/05 07:26:54;;;;;;;2.72;1.08;;;;;;;;;;5030886;28;20052;-64
2024/01/05 07:29:21;;;;;;;2.67;1.17;;;;;;;;;;5027038;28;20045;-70
2024/01/05 07:31:47;;;;;;;2.05;1.10;;;;;;;;;;5031427;28;20053;-67
2024/01/05 07:34:15;;;;;;;3.95;1.20;;;;;;;;;;5022960;28;20367;-67
2024/01/05 07:36:42;;;;;;;4.32;1.15;;;;;;;;;;5029893;28;20049;-69
2024/01/05 07:39:11;;;;;;;2.08;1.10;;;;;;;;;;5008180;28;20096;-69
2024/01/05 07:41:38;;;;;;;8.32;1.17;;;;;;;;;;5030796;28;20060;-70
2024/01/05 07:44:05;;;;;;;1.33;1.00;;;;;;;;;;5033697;28;20342;-76
2024/01/05 07:46:33;;;;;;;1.75;1.00;;;;;;;;;;5028146;28;20053;-72
2024/01/05 07:49:03;;;;;;;3.47;1.17;;;;;;;;;;5032762;28;20156;-75
2024/01/05 07:51:29;;;;;;;3.10;1.10;;;;;;;;;;5028232;28;20080;-74
2024/01/05 07:53:57;;;;;;;1.45;0.95;;;;;;;;;;5027544;28;20041;-72
2024/01/05 07:56:24;;;;;;;1.55;0.90;;;;;;;;;;5011744;28;20103;-74
2024/01/05 07:58:52;;;;;;;3.95;1.08;;;;;;;;;;5015198;28;20053;-73
2024/01/05 08:01:20;;;;;;;1.33;0.80;;;;;;;;;;5024068;28;20480;-74
2024/01/05 08:03:48;;;;;;;1.90;1.00;;;;;;;;;;5013360;28;20046;-75
2024/01/05 08:06:20;;;;;;;1.92;1.02;;;;;;;;;;5025027;28;20080;-71
2024/01/05 08:08:48;;;;;;;5.60;1.45;;;;;;;;;;5030938;28;20049;-73
2024/01/05 08:11:16;;;;;;;1.25;0.75;;;;;;;;;;5026023;28;20393;-72
2024/01/05 08:13:48;;;;;;;1.52;1.00;;;;;;;;;;5027447;28;20132;-72
2024/01/05 08:16:15;;;;;;;5.75;1.17;;;;;;;;;;5014003;28;20065;-73
2024/01/05 08:18:49;;;;;;;3.40;1.05;;;;;;;;;;5033354;28;20072;-73
2024/01/05 08:21:16;;;;;;;4.70;1.48;;;;;;;;;;5025775;28;20545;-74
2024/01/05 08:23:46;;;;;;;3.45;1.20;;;;;;;;;;5028460;28;20135;-74
2024/01/05 08:26:18;;;;;;;4.43;1.00;;;;;;;;;;5025753;28;20053;-75
2024/01/05 08:28:47;;;;;;;4.07;1.20;;;;;;;;;;5034516;28;20053;-74
2024/01/05 08:31:14;;;;;;;3.08;1.10;;;;;;;;;;5028930;28;20123;-72
2024/01/05 08:33:46;;;;;;;2.85;1.30;;;;;;;;;;5039577;28;20064;-74
2024/01/05 08:36:12;;;;;;;6.05;1.27;;;;;;;;;;5034167;28;20057;-73
2024/01/05 08:38:40;;;;;;;1.55;1.08;;;;;;;;;;5040480;28;20056;-75
2024/01/05 08:41:07;;;;;;;2.58;1.45;;;;;;;;;;5036604;28;20069;-74
2024/01/05 08:43:36;;;;;;;3.85;1.55;;;;;;;;;;5047690;28;20045;-74
2024/01/05 08:46:04;;;;;;;8.90;1.80;;;;;;;;;;5032756;28;20210;-75
2024/01/05 08:48:30;;;;;;;4.35;1.40;;;;;;;;;;5038979;28;20053;-74
2024/01/05 08:50:59;;;;;;;2.50;1.45;;;;;;;;;;5033608;28;20184;-73
2024/01/05 08:53:31;;;;;;;5.13;1.50;;;;;;;;;;5035345;28;20061;-76
2024/01/05 08:56:00;;;;;;;5.30;1.77;;;;;;;;;;5035309;28;20597;-78
2024/01/05 08:58:28;;;;;;;4.30;1.63;;;;;;;;;;5028352;28;20049;-76
2024/01/05 09:00:55;;;;;;;3.72;1.73;;;;;;;;;;5015969;28;20049;-77
2024/01/05 09:03:26;;;;;;;3.65;1.67;;;;;;;;;;5021655;28;20145;-81
2024/01/05 09:05:55;;;;;;;5.55;1.60;;;;;;;;;;5018582;28;20460;-76
2024/01/05 09:08:22;;;;;;;4.45;1.40;;;;;;;;;;5038819;28;20180;-76
2024/01/05 09:10:48;;;;;;;3.90;1.58;;;;;;;;;;5036732;28;20396;-75
2024/01/05 09:13:17;;;;;;;5.35;1.40;;;;;;;;;;5039784;28;20139;-74
2024/01/05 09:15:46;;;;;;;2.55;1.05;;;;;;;;;;5035744;28;20521;-78
2024/01/05 09:18:14;;;;;;;4.85;0.98;;;;;;;;;;5034194;28;20048;-75
2024/01/05 09:20:40;;;;;;;3.08;1.20;;;;;;;;;;5037024;28;20103;-76
2024/01/05 09:23:08;;;;;;;1.83;1.08;;;;;;;;;;5018370;28;20367;-75
2024/01/05 09:25:35;;;;;;;2.45;0.85;;;;;;;;;;5028265;28;20050;-74
2024/01/05 09:28:06;;;;;;;3.72;1.20;;;;;;;;;;5033602;28;20474;-74
2024/01/05 09:30:32;;;;;;;2.40;0.90;;;;;;;;;;5047717;28;20047;-73
2024/01/05 09:33:00;;;;;;;4.65;1.00;;;;;;;;;;5046779;28;20045;-75
2024/01/05 09:35:26;;;;;;;2.65;0.88;;;;;;;;;;5039491;28;20119;-73
2024/01/05 09:37:54;;;;;;;1.95;0.93;;;;;;;;;;5041215;28;20052;-75
2024/01/05 09:40:23;;;;;;;1.45;0.98;;;;;;;;;;5031553;28;20056;-75
2024/01/05 09:42:57;;;;;;;1.52;0.80;;;;;;;;;;5006733;28;20068;-76
2024/01/05 09:45:25;;;;;;;1.20;0.80;;;;;;;;;;5035401;28;20553;-74
2024/01/05 09:47:55;;;;;;;1.67;0.82;;;;;;;;;;5023404;28;20490;-75
2024/01/05 09:50:21;;;;;;;2.85;1.00;;;;;;;;;;5041835;28;20053;-74
2024/01/05 09:52:56;;;;;;;0.80;0.65;;;;;;;;;;5004163;28;20254;-72
2024/01/05 09:55:23;;;;;;;1.88;0.93;;;;;;;;;;5029764;28;20042;-74
2024/01/05 09:57:54;;;;;;;2.00;0.80;;;;;;;;;;5022998;28;20526;-74
2024/01/05 10:00:23;;;;;;;3.25;0.85;;;;;;;;;;5015357;28;20459;-74
2024/01/05 10:03:00;;;;;;;2.38;0.75;;;;;;;;;;5041466;28;20056;-74
2024/01/05 10:05:27;;;;;;;2.33;0.80;;;;;;;;;;5037344;28;20526;-75
2024/01/05 10:07:56;;;;;;;3.65;0.85;;;;;;;;;;5033799;28;20064;-75
2024/01/05 10:10:49;;;;;;;5.70;0.80;;;;;;;;;;5011199;28;20065;-75
2024/01/05 10:13:16;;;;;;;3.42;0.75;;;;;;;;;;5046267;28;20060;-75
2024/01/05 10:15:55;;;;;;;5.32;0.80;;;;;;;;;;5030201;28;20494;-75
2024/01/05 10:18:24;;;;;;;2.85;0.90;;;;;;;;;;5038206;28;20073;-75
2024/01/05 10:20:52;;;;;;;1.38;0.70;;;;;;;;;;5019036;28;20045;-75
2024/01/05 10:23:43;;;;;;;3.45;0.90;;;;;;;;;;5020202;28;20586;-74
2024/01/05 10:26:19;;;;;;;2.58;0.70;;;;;;;;;;5032768;28;20034;-74
2024/01/05 10:28:48;;;;;;;1.38;0.75;;;;;;;;;;5038753;28;20037;-75
2024/01/05 10:31:18;;;;;;;4.55;0.70;;;;;;;;;;5039090;28;20073;-75
2024/01/05 10:33:52;;;;;;;2.28;0.90;;;;;;;;;;5010742;28;20050;-74
2024/01/05 10:36:22;;;;;;;1.50;0.80;;;;;;;;;;5010332;28;20061;-74
2024/01/05 10:38:51;;;;;;;2.55;1.10;;;;;;;;;;5033442;28;20060;-75
2024/01/05 10:41:21;;;;;;;4.32;1.10;;;;;;;;;;5029758;28;20053;-73
2024/01/05 10:43:49;;;;;;;1.60;0.90;;;;;;;;;;5037005;28;20067;-77
2024/01/05 10:46:18;;;;;;;1.52;0.90;;;;;;;;;;5036602;28;20077;-76
2024/01/05 10:48:46;;;;;;;1.15;0.90;;;;;;;;;;5042784;28;20111;-74
2024/01/05 10:51:23;;;;;;;2.03;0.80;;;;;;;;;;5022673;28;20061;-75
2024/01/05 10:53:53;;;;;;;2.05;1.13;;;;;;;;;;5029308;28;20057;-74
2024/01/05 10:56:20;;;;;;;1.42;1.15;;;;;;;;;;5032980;28;20056;-74
2024/01/05 10:58:52;;;;;;;4.63;0.90;;;;;;;;;;5029847;28;20055;-74
2024/01/05 11:01:19;;;;;;;1.08;0.60;;;;;;;;;;5032082;28;20117;-74
2024/01/05 11:03:48;;;;;;;4.82;2.80;;;;;;;;;;5036682;28;20056;-74
2024/01/05 11:06:18;;;;;;;4.93;1.52;;;;;;;;;;5012537;28;20056;-75
2024/01/05 11:09:07;;;;;;;4.25;1.10;;;;;;;;;;5037196;28;20056;-74
2024/01/05 11:12:02;;;;;;;1.08;0.50;;;;;;;;;;5033307;28;20237;-75
2024/01/05 11:14:31;;;;;;;2.05;0.80;;;;;;;;;;5021135;28;20056;-75
2024/01/05 11:17:10;;;;;;;3.70;1.10;;;;;;;;;;5034060;28;20037;-77
2024/01/05 11:19:59;;;;;;;3.50;0.80;;;;;;;;;;5034957;28;20041;-74
2024/01/05 11:22:34;;;;;;;3.70;0.60;;;;;;;;;;5025692;28;20050;-73
2024/01/05 11:25:02;;;;;;;1.42;0.70;;;;;;;;;;5024383;28;20033;-76
2024/01/05 11:27:33;;;;;;;2.83;0.80;;;;;;;;;;5015670;28;20148;-74
2024/01/05 11:30:00;;;;;;;1.02;0.60;;;;;;;;;;5045418;28;20071;-73
2024/01/05 11:32:44;;;;;;;1.30;0.60;;;;;;;;;;5041457;28;20061;-75
2024/01/05 11:35:20;;;;;;;1.80;0.50;;;;;;;;;;5033700;28;20056;-75
2024/01/05 11:37:54;;;;;;;1.48;0.70;;;;;;;;;;5018641;28;20049;-75
2024/01/05 11:40:31;;;;;;;1.35;0.98;;;;;;;;;;5036907;28;20053;-75
2024/01/05 11:43:19;;;;;;;3.88;0.75;;;;;;;;;;5030764;28;20034;-76
2024/01/05 11:45:50;;;;;;;2.08;0.93;;;;;;;;;;5025591;28;20083;-74
2024/01/05 11:48:35;;;;;;;5.10;1.20;;;;;;;;;;5021941;28;20057;-74
2024/01/05 11:51:14;;;;;;;2.60;0.77;;;;;;;;;;5034864;28;20042;-75
2024/01/05 11:53:55;;;;;;;2.17;0.80;;;;;;;;;;5019915;28;20053;-74
2024/01/05 11:56:26;;;;;;;2.28;0.90;;;;;;;;;;5030107;28;20076;-74
2024/01/05 11:58:53;;;;;;;1.52;0.85;;;;;;;;;;5013625;28;20049;-73
2024/01/05 12:01:22;;;;;;;4.13;0.77;;;;;;;;;;5038686;28;20049;-71
2024/01/05 12:03:53;;;;;;;1.80;0.80;;;;;;;;;;5035957;28;20046;-74
2024/01/05 12:06:21;;;;;;;2.67;0.60;;;;;;;;;;5040519;28;20049;-72
2024/01/05 12:08:48;;;;;;;2.70;0.85;;;;;;;;;;5040372;28;20058;-73
2024/01/05 12:11:20;;;;;;;1.20;0.70;;;;;;;;;;5017498;28;20061;-74
2024/01/05 12:13:46;;;;;;;2.03;0.63;;;;;;;;;;5020671;28;20037;-75
2024/01/05 12:16:16;;;;;;;1.70;0.70;;;;;;;;;;5040397;28;20129;-76
2024/01/05 12:18:47;;;;;;;9.40;1.10;;;;;;;;;;5024197;28;20071;-75
2024/01/05 12:21:14;;;;;;;1.35;0.60;;;;;;;;;;5026137;28;20059;-72
2024/01/05 12:23:53;;;;;;;1.05;0.60;;;;;;;;;;5034876;28;20057;-73
2024/01/05 12:26:20;;;;;;;3.90;0.73;;;;;;;;;;5033025;28;20037;-72
2024/01/05 12:28:47;;;;;;;0.82;0.63;;;;;;;;;;5018330;28;20068;-74
2024/01/05 12:31:23;;;;;;;4.38;0.65;;;;;;;;;;5022526;28;20053;-74
2024/01/05 12:33:50;;;;;;;0.47;0.40;;;;;;;;;;5032863;28;20037;-76
2024/01/05 12:36:31;;;;;;;1.65;0.73;;;;;;;;;;5036083;28;20103;-74
2024/01/05 12:39:10;;;;;;;2.00;0.90;;;;;;;;;;5032242;28;20127;-73
2024/01/05 12:41:41;;;;;;;0.98;0.60;;;;;;;;;;5024653;28;20057;-75
2024/01/05 12:44:09;;;;;;;4.63;0.47;;;;;;;;;;5031234;28;20667;-75
2024/01/05 12:46:43;;;;;;;2.40;0.60;;;;;;;;;;5032969;28;20067;-75
2024/01/05 12:49:34;;;;;;;1.05;0.82;;;;;;;;;;5039580;28;20088;-74
2024/01/05 12:52:02;;;;;;;1.38;0.50;;;;;;;;;;5040554;28;20056;-73
2024/01/05 12:54:42;;;;;;;2.00;0.77;;;;;;;;;;5025399;28;20546;-74
2024/01/05 12:57:33;;;;;;;0.98;0.70;;;;;;;;;;5016593;28;20597;-73
2024/01/05 13:00:17;;;;;;;1.95;1.30;;;;;;;;;;5032664;28;20096;-72
2024/01/05 13:02:47;;;;;;;1.10;0.85;;;;;;;;;;5022300;28;20149;-74
2024/01/05 13:05:29;;;;;;;1.42;0.60;;;;;;;;;;5031224;28;20061;-73
2024/01/05 13:07:58;;;;;;;1.40;0.38;;;;;;;;;;5021888;28;20056;-74
2024/01/05 13:10:28;;;;;;;2.05;0.73;;;;;;;;;;5030627;28;20045;-73
2024/01/05 13:12:56;;;;;;;7.57;0.75;;;;;;;;;;5038346;28;20055;-73
2024/01/05 13:15:22;;;;;;;2.00;0.63;;;;;;;;;;5038421;28;20080;-75
2024/01/05 13:17:51;;;;;;;1.85;0.45;;;;;;;;;;5045941;28;20045;-76
2024/01/05 13:20:24;;;;;;;2.40;0.93;;;;;;;;;;5030205;28;20443;-73
2024/01/05 13:22:58;;;;;;;2.40;0.80;;;;;;;;;;5024898;28;20060;-79
2024/01/05 13:25:26;;;;;;;0.98;0.75;;;;;;;;;;5027232;28;20069;-75
2024/01/05 13:27:53;;;;;;;4.78;1.23;;;;;;;;;;5022968;28;20125;-76
2024/01/05 13:30:21;;;;;;;2.13;0.60;;;;;;;;;;5038961;28;20042;-75
2024/01/05 13:32:51;;;;;;;0.85;0.57;;;;;;;;;;5042345;28;20049;-73
2024/01/05 13:35:21;;;;;;;2.25;0.52;;;;;;;;;;5042300;28;20053;-74
2024/01/05 13:37:52;;;;;;;3.10;0.50;;;;;;;;;;5031341;28;20517;-77
2024/01/05 13:40:20;;;;;;;2.17;0.82;;;;;;;;;;5028354;28;20494;-74
2024/01/05 13:42:49;;;;;;;0.68;0.57;;;;;;;;;;5017775;28;20132;-74
2024/01/05 13:45:16;;;;;;;4.03;1.58;;;;;;;;;;5032756;28;20073;-72
2024/01/05 13:47:44;;;;;;;7.72;1.10;;;;;;;;;;5029381;28;20049;-74
2024/01/05 13:50:12;;;;;;;1.58;0.70;;;;;;;;;;5034232;28;20045;-77
2024/01/05 13:52:43;;;;;;;3.92;0.90;;;;;;;;;;5019068;28;20041;-75
2024/01/05 13:55:10;;;;;;;2.15;0.85;;;;;;;;;;5026707;28;20074;-75
2024/01/05 13:57:53;;;;;;;1.80;0.75;;;;;;;;;;5031132;28;20084;-74
2024/01/05 14:00:23;;;;;;;4.10;0.70;;;;;;;;;;5028247;28;20037;-75
2024/01/05 14:02:51;;;;;;;1.25;0.32;;;;;;;;;;5044757;28;20057;-74
2024/01/05 14:05:18;;;;;;;1.00;0.60;;;;;;;;;;5019418;28;20079;-68
2024/01/05 14:07:46;;;;;;;1.60;1.10;;;;;;;;;;4994930;28;20053;-72
2024/01/05 14:10:15;;;;;;;4.80;0.70;;;;;;;;;;5011028;28;20494;-74
2024/01/05 14:12:44;;;;;;;2.63;0.80;;;;;;;;;;5027559;28;20559;-73
2024/01/05 14:15:10;;;;;;;4.28;1.25;;;;;;;;;;5012109;28;20037;-74
2024/01/05 14:17:37;;;;;;;3.88;0.50;;;;;;;;;;5032538;28;20189;-74
2024/01/05 14:20:08;;;;;;;0.60;0.40;;;;;;;;;;5021511;28;20145;-73
2024/01/05 14:22:35;;;;;;;5.03;0.75;;;;;;;;;;5023310;28;20186;-74
2024/01/05 14:25:43;;;;;;;1.75;0.70;;;;;;;;;;4997280;28;20052;-73
2024/01/05 14:29:23;;;;;;;3.00;0.70;;;;;;;;;;5026832;28;20132;-73
2024/01/05 14:33:07;;;;;;;0.80;0.40;;;;;;;;;;5029685;28;20410;-74
2024/01/05 14:36:46;;;;;;;2.05;0.70;;;;;;;;;;5028217;28;20045;-74
2024/01/05 14:40:27;;;;;;;1.58;0.82;;;;;;;;;;5026055;28;20446;-76
2024/01/05 14:44:08;;;;;;;5.95;1.00;;;;;;;;;;5024452;28;20091;-73
2024/01/05 14:47:49;;;;;;;12.90;0.98;;;;;;;;;;5014631;28;20423;-74
2024/01/05 14:51:36;;;;;;;3.13;0.90;;;;;;;;;;5023140;28;20064;-79
2024/01/05 14:55:17;;;;;;;2.67;0.60;;;;;;;;;;5027058;28;20057;-74
2024/01/05 14:58:59;;;;;;;5.07;0.95;;;;;;;;;;5016528;28;20884;-79
2024/01/05 15:02:40;;;;;;;4.03;0.70;;;;;;;;;;5026570;28;20053;-78
2024/01/05 15:06:25;;;;;;;4.95;0.50;;;;;;;;;;5013033;28;20057;-79
2024/01/05 15:10:02;;;;;;;0.93;0.40;;;;;;;;;;5018844;28;20069;-71
2024/01/05 15:13:43;;;;;;;7.55;0.65;;;;;;;;;;5024938;28;20044;-76
2024/01/05 15:17:25;;;;;;;5.35;0.60;;;;;;;;;;5030332;28;20057;-76
2024/01/05 15:21:06;;;;;;;1.27;0.52;;;;;;;;;;5033859;28;20557;-74
2024/01/05 15:24:47;;;;;;;0.63;0.30;;;;;;;;;;5032450;28;20163;-76